createdAt,value
2022-11-05T00:02:49.362Z,161303.94
2022-11-05T00:06:12.684Z,161298.66
2022-11-05T00:09:31.038Z,161314.34
2022-11-05T00:12:53.528Z,161305.25
2022-11-05T00:16:16.416Z,161305.25
2022-11-05T00:19:20.331Z,161305.25
2022-11-05T00:22:42.879Z,161294.72
2022-11-05T00:26:00.219Z,161286.91
2022-11-05T00:29:04.402Z,161293.41
2022-11-05T00:32:08.232Z,161281.66
2022-11-05T00:35:12.261Z,161286.91
2022-11-05T00:38:16.490Z,161284.31
2022-11-05T00:41:20.397Z,161275.13
2022-11-05T00:44:43.178Z,161280.38
2022-11-05T00:48:05.956Z,161297.34
2022-11-05T00:51:10.154Z,161292.13
2022-11-05T00:54:14.027Z,161271.19
2022-11-05T00:57:18.119Z,161275.13
2022-11-05T01:00:23.303Z,161263.38
2022-11-05T01:03:33.362Z,161268.59
2022-11-05T01:06:37.208Z,161267.31
2022-11-05T01:09:41.047Z,161260.75
2022-11-05T01:12:45.061Z,161241.13
2022-11-05T01:15:50.747Z,161255.47
2022-11-05T01:18:54.872Z,161243.72
2022-11-05T01:21:58.932Z,161247.66
2022-11-05T01:25:03.780Z,161254.19
2022-11-05T01:28:09.449Z,161239.81
2022-11-05T01:31:13.667Z,161247.66
2022-11-05T01:34:17.576Z,161258.13
2022-11-05T01:37:21.647Z,161250.28
2022-11-05T01:40:26.178Z,161241.13
2022-11-05T01:43:46.050Z,161237.22
2022-11-05T01:46:49.818Z,161221.53
2022-11-05T01:49:57.287Z,161228.00
2022-11-05T01:53:13.211Z,161241.13
2022-11-05T01:56:31.878Z,161238.53
2022-11-05T01:59:44.027Z,161254.19
2022-11-05T02:02:48.300Z,161218.88
2022-11-05T02:05:56.506Z,161226.75
2022-11-05T02:09:20.046Z,161228.00
2022-11-05T02:12:24.232Z,161211.03
2022-11-05T02:15:55.183Z,161200.59
2022-11-05T02:19:13.234Z,161184.88
2022-11-05T02:22:38.712Z,161182.28
2022-11-05T02:26:10.696Z,161175.75
2022-11-05T02:29:23.802Z,161166.56
2022-11-05T02:32:39.591Z,161169.16
2022-11-05T02:35:54.356Z,161187.50
2022-11-05T02:39:13.417Z,161179.69
2022-11-05T02:42:20.523Z,161177.03
2022-11-05T02:45:42.835Z,161180.97
2022-11-05T02:48:55.091Z,161190.09
2022-11-05T02:52:04.382Z,161186.16
2022-11-05T02:55:29.565Z,161175.75
2022-11-05T02:58:35.388Z,161178.34
2022-11-05T03:01:42.175Z,161171.81
2022-11-05T03:04:46.258Z,161175.75
2022-11-05T03:08:05.419Z,161167.88
2022-11-05T03:11:17.560Z,161165.25
2022-11-05T03:14:28.806Z,161156.09
2022-11-05T03:17:48.529Z,161161.31
2022-11-05T03:21:21.631Z,161156.09
2022-11-05T03:24:33.070Z,161141.72
2022-11-05T03:27:40.780Z,161137.84
2022-11-05T03:30:45.753Z,161131.25
2022-11-05T03:33:53.161Z,161136.50
2022-11-05T03:36:58.287Z,161128.66
2022-11-05T03:40:06.145Z,161148.25
2022-11-05T03:43:10.352Z,161146.97
2022-11-05T03:46:21.968Z,161153.50
2022-11-05T03:49:30.081Z,161149.56
2022-11-05T03:52:41.689Z,161145.63
2022-11-05T03:55:56.656Z,161156.09
2022-11-05T03:59:02.917Z,161148.25
2022-11-05T04:02:07.257Z,161141.72
2022-11-05T04:05:11.798Z,161126.06
2022-11-05T04:08:34.348Z,161124.72
2022-11-05T04:11:57.029Z,161114.31
2022-11-05T04:15:01.227Z,161109.06
2022-11-05T04:18:05.160Z,161097.28
2022-11-05T04:21:29.002Z,161088.13
2022-11-05T04:24:32.968Z,161078.94
2022-11-05T04:27:37.282Z,161068.53
2022-11-05T04:30:41.375Z,161048.84
2022-11-05T04:33:45.407Z,161038.44
2022-11-05T04:36:50.412Z,161033.19
2022-11-05T04:39:54.265Z,161025.34
2022-11-05T04:42:58.443Z,161016.19
2022-11-05T04:46:02.544Z,161001.81
2022-11-05T04:49:06.305Z,160999.16
2022-11-05T04:52:10.136Z,160983.50
2022-11-05T04:55:14.039Z,160986.09
2022-11-05T04:58:18.060Z,160999.16
2022-11-05T05:01:23.381Z,161009.66
2022-11-05T05:04:27.542Z,161029.25
2022-11-05T05:07:33.113Z,161016.19
2022-11-05T05:10:37.228Z,160996.59
2022-11-05T05:13:41.785Z,160991.38
2022-11-05T05:16:45.990Z,160962.59
2022-11-05T05:20:08.304Z,160960.00
2022-11-05T05:23:12.447Z,160949.53
2022-11-05T05:26:17.073Z,160941.69
2022-11-05T05:29:21.321Z,160916.84
2022-11-05T05:32:26.016Z,160905.06
2022-11-05T05:35:30.351Z,160901.13
2022-11-05T05:38:34.123Z,160894.66
2022-11-05T05:41:38.134Z,160899.88
2022-11-05T05:44:42.484Z,160892.00
2022-11-05T05:47:46.283Z,160881.56
2022-11-05T05:50:50.017Z,160876.31
2022-11-05T05:53:54.846Z,160864.56
2022-11-05T05:56:58.659Z,160858.00
2022-11-05T06:00:04.429Z,160830.56
2022-11-05T06:03:08.304Z,160822.75
2022-11-05T06:06:13.560Z,160821.44
2022-11-05T06:09:17.233Z,160808.34
2022-11-05T06:12:21.002Z,160792.69
2022-11-05T06:15:24.749Z,160792.69
2022-11-05T06:18:30.284Z,160770.50
2022-11-05T06:21:34.315Z,160763.94
2022-11-05T06:24:38.181Z,160765.25
2022-11-05T06:27:42.059Z,160762.59
2022-11-05T06:30:51.692Z,160737.78
2022-11-05T06:33:55.655Z,160744.34
2022-11-05T06:36:59.570Z,160741.72
2022-11-05T06:40:03.948Z,160737.78
2022-11-05T06:43:07.983Z,160735.19
2022-11-05T06:46:12.340Z,160743.03
2022-11-05T06:49:16.483Z,160750.84
2022-11-05T06:52:20.494Z,160761.31
2022-11-05T06:55:25.525Z,160766.53
2022-11-05T06:58:30.849Z,160760.00
2022-11-05T07:01:35.515Z,160760.00
2022-11-05T07:04:39.630Z,160767.84
2022-11-05T07:07:45.107Z,160765.25
2022-11-05T07:10:49.187Z,160756.09
2022-11-05T07:13:52.739Z,160762.59
2022-11-05T07:16:57.234Z,160767.84
2022-11-05T07:20:01.479Z,160776.97
2022-11-05T07:23:11.432Z,160792.69
2022-11-05T07:26:15.499Z,160797.94
2022-11-05T07:29:19.671Z,160817.50
2022-11-05T07:32:23.935Z,160826.63
2022-11-05T07:35:28.479Z,160839.75
2022-11-05T07:38:32.375Z,160858.00
2022-11-05T07:41:36.204Z,160867.16
2022-11-05T07:44:40.353Z,160884.16
2022-11-05T07:47:52.831Z,160905.06
2022-11-05T07:50:56.981Z,160923.41
2022-11-05T07:54:00.774Z,160928.56
2022-11-05T07:57:04.875Z,160950.81
2022-11-05T08:00:17.139Z,160965.25
2022-11-05T08:03:21.229Z,160991.38
2022-11-05T08:06:25.894Z,161010.94
2022-11-05T08:09:29.838Z,161054.09
2022-11-05T08:12:33.876Z,161093.34
2022-11-05T08:15:37.834Z,161156.09
2022-11-05T08:18:41.957Z,161192.75
2022-11-05T08:21:46.304Z,161229.34
2022-11-05T08:24:50.128Z,161255.47
2022-11-05T08:28:06.559Z,161292.13
2022-11-05T08:31:10.526Z,161305.25
2022-11-05T08:34:14.634Z,161324.84
2022-11-05T08:37:18.525Z,161381.06
2022-11-05T08:40:22.220Z,161429.53
2022-11-05T08:43:26.344Z,161517.19
2022-11-05T08:46:30.635Z,161708.22
2022-11-05T08:49:34.436Z,161776.34
2022-11-05T08:52:40.380Z,161830.03
2022-11-05T08:55:44.714Z,161795.97
2022-11-05T08:58:48.460Z,161759.34
2022-11-05T09:01:53.104Z,161743.63
2022-11-05T09:04:57.608Z,161780.28
2022-11-05T09:08:01.804Z,161841.78
2022-11-05T09:11:05.872Z,161807.75
2022-11-05T09:14:09.821Z,161771.09
2022-11-05T09:17:21.784Z,161731.84
2022-11-05T09:20:25.712Z,161703.06
2022-11-05T09:23:29.603Z,161700.41
2022-11-05T09:26:33.671Z,161659.81
2022-11-05T09:29:37.744Z,161658.50
2022-11-05T09:32:41.669Z,161634.94
2022-11-05T09:35:45.632Z,161632.38
2022-11-05T09:38:50.055Z,161590.47
2022-11-05T09:42:00.556Z,161585.22
2022-11-05T09:45:18.342Z,161598.31
2022-11-05T09:48:27.641Z,161578.69
2022-11-05T09:51:32.589Z,161591.75
2022-11-05T09:54:37.657Z,161598.31
2022-11-05T09:57:47.081Z,161615.31
2022-11-05T10:00:52.787Z,161590.47
2022-11-05T10:03:59.639Z,161574.81
2022-11-05T10:07:07.315Z,161557.75
2022-11-05T10:10:41.129Z,161594.38
2022-11-05T10:13:50.459Z,161595.66
2022-11-05T10:17:09.460Z,161574.81
2022-11-05T10:20:32.447Z,161599.63
2022-11-05T10:23:36.515Z,161658.50
2022-11-05T10:26:40.422Z,161689.94
2022-11-05T10:29:45.046Z,161722.69
2022-11-05T10:32:54.128Z,161755.41
2022-11-05T10:36:04.887Z,161742.31
2022-11-05T10:39:14.718Z,161759.34
2022-11-05T10:42:21.489Z,161765.81
2022-11-05T10:45:34.972Z,161751.47
2022-11-05T10:48:43.956Z,161790.72
2022-11-05T10:51:55.533Z,161835.25
2022-11-05T10:55:01.608Z,161841.78
2022-11-05T10:58:09.723Z,161824.75
2022-11-05T11:01:13.812Z,161866.69
2022-11-05T11:04:25.046Z,161938.75
2022-11-05T11:07:28.892Z,161936.06
2022-11-05T11:10:47.920Z,161930.84
2022-11-05T11:13:57.927Z,161954.44
2022-11-05T11:17:24.500Z,162001.59
2022-11-05T11:20:31.349Z,162088.03
2022-11-05T11:23:40.889Z,162122.09
2022-11-05T11:26:44.759Z,162097.19
2022-11-05T11:29:54.959Z,162073.63
2022-11-05T11:33:06.198Z,162009.41
2022-11-05T11:36:12.185Z,161904.69
2022-11-05T11:39:19.936Z,161849.66
2022-11-05T11:42:27.333Z,161875.84
2022-11-05T11:45:45.524Z,161917.78
2022-11-05T11:48:50.136Z,161957.00
2022-11-05T11:52:01.487Z,161972.78
2022-11-05T11:55:11.623Z,161953.09
2022-11-05T11:58:15.862Z,162001.59
2022-11-05T12:01:32.304Z,162008.09
2022-11-05T12:05:03.439Z,161932.13
2022-11-05T12:08:14.440Z,161843.13
2022-11-05T12:11:27.937Z,161777.69
2022-11-05T12:14:51.823Z,161778.97
2022-11-05T12:18:01.745Z,161794.69
2022-11-05T12:21:47.733Z,161839.19
2022-11-05T12:25:22.704Z,161928.19
2022-11-05T12:28:36.039Z,162014.69
2022-11-05T12:31:57.883Z,162080.16
2022-11-05T12:35:05.059Z,162111.56
2022-11-05T12:38:26.201Z,162112.91
2022-11-05T12:41:54.925Z,162085.44
2022-11-05T12:45:45.436Z,162042.16
2022-11-05T12:49:01.807Z,162008.09
2022-11-05T12:52:15.151Z,161977.97
2022-11-05T12:55:25.320Z,161930.84
2022-11-05T12:58:35.497Z,161902.06
2022-11-05T13:01:45.599Z,161875.84
2022-11-05T13:04:54.195Z,161831.34
2022-11-05T13:08:12.993Z,161773.75
2022-11-05T13:11:23.872Z,161735.78
2022-11-05T13:14:27.905Z,161701.72
2022-11-05T13:17:51.261Z,161672.91
2022-11-05T13:20:56.600Z,161650.69
2022-11-05T13:24:39.045Z,161661.16
2022-11-05T13:27:56.571Z,161641.47
2022-11-05T13:31:03.384Z,161655.88
2022-11-05T13:34:12.334Z,161667.69
2022-11-05T13:37:41.054Z,161669.03
2022-11-05T13:40:53.642Z,161669.03
2022-11-05T13:44:14.571Z,161680.78
2022-11-05T13:47:36.589Z,161716.09
2022-11-05T13:50:53.046Z,161725.28
2022-11-05T13:54:35.091Z,161734.44
2022-11-05T13:57:42.095Z,161713.47
2022-11-05T14:01:00.915Z,161713.47
2022-11-05T14:04:05.485Z,161684.72
2022-11-05T14:07:20.874Z,161663.75
2022-11-05T14:10:36.112Z,161638.88
2022-11-05T14:13:43.841Z,161625.78
2022-11-05T14:16:52.027Z,161621.84
2022-11-05T14:20:04.802Z,161632.38
2022-11-05T14:23:36.242Z,161627.13
2022-11-05T14:26:39.989Z,161628.44
2022-11-05T14:29:46.036Z,161623.19
2022-11-05T14:32:50.941Z,161624.50
2022-11-05T14:36:20.348Z,161616.59
2022-11-05T14:39:32.240Z,161606.16
2022-11-05T14:42:37.248Z,161596.97
2022-11-05T14:45:57.581Z,161595.66
2022-11-05T14:49:09.051Z,161587.84
2022-11-05T14:52:15.248Z,161572.16
2022-11-05T14:55:36.566Z,161556.47
2022-11-05T14:58:42.811Z,161549.94
2022-11-05T15:01:47.447Z,161538.06
2022-11-05T15:05:30.590Z,161518.47
2022-11-05T15:08:54.639Z,161498.84
2022-11-05T15:12:02.408Z,161480.50
2022-11-05T15:15:27.790Z,161481.84
2022-11-05T15:18:45.633Z,161462.22
2022-11-05T15:21:51.191Z,161445.22
2022-11-05T15:24:55.523Z,161438.63
2022-11-05T15:28:12.628Z,161425.53
2022-11-05T15:31:16.571Z,161407.28
2022-11-05T15:34:35.572Z,161411.19
2022-11-05T15:37:51.736Z,161396.78
2022-11-05T15:41:05.278Z,161379.78
2022-11-05T15:44:30.975Z,161362.78
2022-11-05T15:47:35.190Z,161353.66
2022-11-05T15:50:39.906Z,161341.84
2022-11-05T15:57:29.693Z,161326.13
2022-11-05T16:00:36.448Z,161320.91
2022-11-05T16:03:41.622Z,161310.47
2022-11-05T16:06:48.691Z,161297.34
2022-11-05T16:09:59.553Z,161286.91
2022-11-05T16:13:37.021Z,161276.41
2022-11-05T16:16:41.504Z,161272.47
2022-11-05T16:19:46.633Z,161254.19
2022-11-05T16:22:53.798Z,161242.47
2022-11-05T16:25:57.780Z,161224.13
2022-11-05T16:29:31.248Z,161213.66
2022-11-05T16:32:35.415Z,161203.22
2022-11-05T16:35:49.076Z,161192.75
2022-11-05T16:38:53.295Z,161182.28
2022-11-05T16:41:57.629Z,161169.16
2022-11-05T16:45:01.882Z,161158.75
2022-11-05T16:48:06.421Z,161148.25
2022-11-05T16:51:11.616Z,161132.56
2022-11-05T16:54:15.460Z,161128.66
2022-11-05T16:57:28.796Z,161146.97
2022-11-05T17:00:33.421Z,161127.31
2022-11-05T17:03:37.430Z,161101.19
2022-11-05T17:06:41.155Z,161078.94
2022-11-05T17:09:45.256Z,161073.69
2022-11-05T17:12:49.401Z,161067.22
2022-11-05T17:15:53.304Z,161072.41
2022-11-05T17:18:57.898Z,161080.28
2022-11-05T17:22:01.852Z,161061.97
2022-11-05T17:25:06.136Z,161056.72
2022-11-05T17:28:10.817Z,161054.09
2022-11-05T17:31:17.249Z,161038.44
2022-11-05T17:34:21.440Z,161026.66
2022-11-05T17:37:25.710Z,160999.16
2022-11-05T17:40:30.392Z,160991.38
2022-11-05T17:43:34.443Z,161003.09
2022-11-05T17:46:38.187Z,160980.91
2022-11-05T17:49:42.196Z,160973.09
2022-11-05T17:52:46.463Z,160960.00
2022-11-05T17:55:50.647Z,160957.34
2022-11-05T17:58:55.411Z,160952.13
2022-11-05T18:01:59.360Z,160953.41
2022-11-05T18:05:03.735Z,160956.06
2022-11-05T18:08:09.009Z,160949.53
2022-11-05T18:11:13.289Z,160965.25
2022-11-05T18:14:22.814Z,160957.34
2022-11-05T18:17:28.008Z,160950.81
2022-11-05T18:20:32.202Z,160944.34
2022-11-05T18:23:36.318Z,160928.56
2022-11-05T18:26:40.585Z,160903.75
2022-11-05T18:29:44.409Z,160897.25
2022-11-05T18:32:48.286Z,160897.25
2022-11-05T18:35:52.383Z,160878.91
2022-11-05T18:38:58.652Z,160876.31
2022-11-05T18:42:03.880Z,160861.91
2022-11-05T18:45:09.657Z,160845.00
2022-11-05T18:48:13.669Z,160838.41
2022-11-05T18:51:17.915Z,160831.91
2022-11-05T18:54:22.047Z,160826.63
2022-11-05T18:57:27.025Z,160829.25
2022-11-05T19:00:32.040Z,160839.75
2022-11-05T19:03:36.236Z,160838.41
2022-11-05T19:06:41.140Z,160831.91
2022-11-05T19:09:45.234Z,160818.84
2022-11-05T19:12:49.283Z,160809.66
2022-11-05T19:15:53.718Z,160814.91
2022-11-05T19:18:59.697Z,160805.72
2022-11-05T19:22:03.877Z,160795.34
2022-11-05T19:25:08.094Z,160784.84
2022-11-05T19:28:12.607Z,160778.31
2022-11-05T19:31:19.608Z,160776.97
2022-11-05T19:34:23.881Z,160769.19
2022-11-05T19:37:28.375Z,160761.31
2022-11-05T19:40:32.531Z,160758.69
2022-11-05T19:43:37.591Z,160750.84
2022-11-05T19:46:41.610Z,160743.03
2022-11-05T19:49:46.257Z,160754.75
2022-11-05T19:52:50.392Z,160750.84
2022-11-05T19:55:54.735Z,160750.84
2022-11-05T19:58:59.522Z,160743.03
2022-11-05T20:02:04.407Z,160719.47
2022-11-05T20:05:09.183Z,160711.69
2022-11-05T20:08:13.514Z,160712.97
2022-11-05T20:11:18.552Z,160724.72
2022-11-05T20:14:24.592Z,160699.91
2022-11-05T20:17:28.818Z,160703.84
2022-11-05T20:20:33.041Z,160692.00
2022-11-05T20:23:37.303Z,160677.69
2022-11-05T20:26:41.642Z,160672.44
2022-11-05T20:29:45.572Z,160665.91
2022-11-05T20:32:56.002Z,160665.91
2022-11-05T20:36:02.762Z,160656.78
2022-11-05T20:39:06.951Z,160651.53
2022-11-05T20:42:11.152Z,160662.03
2022-11-05T20:45:15.361Z,160656.78
2022-11-05T20:48:19.173Z,160643.69
2022-11-05T20:51:24.376Z,160634.56
2022-11-05T20:54:28.125Z,160612.34
2022-11-05T20:57:31.892Z,160605.84
2022-11-05T21:00:35.829Z,160605.84
2022-11-05T21:03:40.161Z,160590.16
2022-11-05T21:06:43.990Z,160586.22
2022-11-05T21:09:48.054Z,160586.22
2022-11-05T21:12:51.805Z,160573.19
2022-11-05T21:15:58.366Z,160567.94
2022-11-05T21:19:02.888Z,160565.34
2022-11-05T21:22:07.302Z,160567.94
2022-11-05T21:25:11.774Z,160554.88
2022-11-05T21:28:16.409Z,160549.63
2022-11-05T21:31:20.518Z,160541.84
2022-11-05T21:34:24.515Z,160530.09
2022-11-05T21:37:28.700Z,160548.38
2022-11-05T21:40:32.892Z,160531.34
2022-11-05T21:43:38.619Z,160527.44
2022-11-05T21:46:42.800Z,160532.69
2022-11-05T21:49:46.840Z,160518.31
2022-11-05T21:53:09.526Z,160522.19
2022-11-05T21:56:37.913Z,160522.19
2022-11-05T21:59:48.260Z,160505.28
2022-11-05T22:02:52.276Z,160488.31
2022-11-05T22:05:56.594Z,160493.44
2022-11-05T22:09:00.393Z,160483.06
2022-11-05T22:12:05.134Z,160496.09
2022-11-05T22:15:09.568Z,160500.03
2022-11-05T22:18:13.803Z,160492.19
2022-11-05T22:21:18.640Z,160468.66
2022-11-05T22:24:23.168Z,160449.09
2022-11-05T22:27:27.462Z,160445.16
2022-11-05T22:30:35.406Z,160445.16
2022-11-05T22:33:39.115Z,160436.00
2022-11-05T22:36:42.968Z,160441.25
2022-11-05T22:39:46.868Z,160433.41
2022-11-05T22:42:50.885Z,160442.56
2022-11-05T22:45:54.844Z,160449.09
2022-11-05T22:48:59.823Z,160436.00
2022-11-05T22:52:03.847Z,160471.28
2022-11-05T22:55:08.253Z,160460.78
2022-11-05T22:58:12.438Z,160447.75
2022-11-05T23:01:17.598Z,160443.84
2022-11-05T23:04:21.411Z,160432.06
2022-11-05T23:07:43.788Z,160422.97
2022-11-05T23:11:06.694Z,160422.97
2022-11-05T23:14:12.898Z,160439.91
2022-11-05T23:17:35.469Z,160437.31
2022-11-05T23:20:58.386Z,160407.28
2022-11-05T23:24:05.551Z,160391.63
2022-11-05T23:27:09.954Z,160387.72
2022-11-05T23:30:20.481Z,160379.88
2022-11-05T23:33:25.194Z,160390.31
2022-11-05T23:36:47.880Z,160391.63
2022-11-05T23:39:52.129Z,160400.75
2022-11-05T23:43:15.780Z,160416.44
2022-11-05T23:46:38.624Z,160450.41
2022-11-05T23:49:42.517Z,160429.47
2022-11-05T23:52:46.414Z,160424.28
2022-11-05T23:55:50.752Z,160459.53
2022-11-05T23:58:55.071Z,160466.03
